createdAt,value
2022-09-11T00:01:40.403Z,16.48
2022-09-11T00:04:09.348Z,16.53
2022-09-11T00:06:37.477Z,14.62
2022-09-11T00:09:07.455Z,16.96
2022-09-11T00:11:37.436Z,15.25
2022-09-11T00:14:05.587Z,14.60
2022-09-11T00:16:36.077Z,15.61
2022-09-11T00:19:08.180Z,14.11
2022-09-11T00:21:36.528Z,17.29
2022-09-11T00:24:05.670Z,16.17
2022-09-11T00:26:33.839Z,14.98
2022-09-11T00:29:02.464Z,15.49
2022-09-11T00:31:32.339Z,17.17
2022-09-11T00:34:00.580Z,17.08
2022-09-11T00:36:32.495Z,17.52
2022-09-11T00:39:01.246Z,17.52
2022-09-11T00:41:33.400Z,16.64
2022-09-11T00:44:05.587Z,14.02
2022-09-11T00:46:38.515Z,16.52
2022-09-11T00:49:18.720Z,16.29
2022-09-11T00:51:53.385Z,16.75
2022-09-11T00:54:26.404Z,15.57
2022-09-11T00:56:55.566Z,17.26
2022-09-11T00:59:27.036Z,17.49
2022-09-11T01:01:55.697Z,17.13
2022-09-11T01:04:24.797Z,15.66
2022-09-11T01:06:57.582Z,15.65
2022-09-11T01:09:28.833Z,14.75
2022-09-11T01:12:05.031Z,17.52
2022-09-11T01:14:42.788Z,16.25
2022-09-11T01:17:21.890Z,14.75
2022-09-11T01:20:20.338Z,16.08
2022-09-11T01:23:20.666Z,17.53
2022-09-11T01:26:18.392Z,17.48
2022-09-11T01:28:53.441Z,15.61
2022-09-11T01:31:26.838Z,16.56
2022-09-11T01:34:00.899Z,17.50
2022-09-11T01:36:36.472Z,17.05
2022-09-11T01:39:05.757Z,17.18
2022-09-11T01:41:41.740Z,16.95
2022-09-11T01:44:17.319Z,14.37
2022-09-11T01:46:47.577Z,16.45
2022-09-11T01:49:20.633Z,17.57
2022-09-11T01:51:52.586Z,17.26
2022-09-11T01:54:24.807Z,17.42
2022-09-11T01:56:56.581Z,17.62
2022-09-11T01:59:35.748Z,15.70
2022-09-11T02:02:07.652Z,17.62
2022-09-11T02:04:42.044Z,16.50
2022-09-11T02:07:13.863Z,16.96
2022-09-11T02:09:48.443Z,16.23
2022-09-11T02:12:20.338Z,17.40
2022-09-11T02:14:53.121Z,17.61
2022-09-11T02:17:28.161Z,16.36
2022-09-11T02:19:59.037Z,16.59
2022-09-11T02:22:27.604Z,15.17
2022-09-11T02:24:56.582Z,17.63
2022-09-11T02:27:27.463Z,17.08
2022-09-11T02:29:59.499Z,17.18
2022-09-11T02:32:32.424Z,17.52
2022-09-11T02:35:01.312Z,17.51
2022-09-11T02:37:47.237Z,17.25
2022-09-11T02:40:29.013Z,17.41
2022-09-11T02:43:17.826Z,15.55
2022-09-11T02:45:59.009Z,17.54
2022-09-11T02:48:39.934Z,15.61
2022-09-11T02:51:18.941Z,17.55
2022-09-11T02:53:54.100Z,15.55
2022-09-11T02:56:29.768Z,17.33
2022-09-11T02:59:02.839Z,14.47
2022-09-11T03:01:47.287Z,15.28
2022-09-11T03:04:15.494Z,17.49
2022-09-11T03:06:44.165Z,14.21
2022-09-11T03:09:12.861Z,17.58
2022-09-11T03:11:40.830Z,16.23
2022-09-11T03:14:08.942Z,14.23
2022-09-11T03:16:41.592Z,17.02
2022-09-11T03:19:12.097Z,15.95
2022-09-11T03:21:40.366Z,17.49
2022-09-11T03:24:09.956Z,14.36
2022-09-11T03:26:38.999Z,16.18
2022-09-11T03:29:08.459Z,15.01
2022-09-11T03:31:39.252Z,17.51
2022-09-11T03:34:10.400Z,17.60
2022-09-11T03:36:38.838Z,17.48
2022-09-11T03:39:06.939Z,17.53
2022-09-11T03:41:35.105Z,17.55
2022-09-11T03:44:03.715Z,16.50
2022-09-11T03:46:33.023Z,15.76
2022-09-11T03:49:02.035Z,14.62
2022-09-11T03:51:33.147Z,15.96
2022-09-11T03:54:01.674Z,16.16
2022-09-11T03:56:31.896Z,16.04
2022-09-11T03:59:01.189Z,16.36
2022-09-11T04:01:30.563Z,17.61
2022-09-11T04:03:58.852Z,14.83
2022-09-11T04:06:36.907Z,15.75
2022-09-11T04:09:07.060Z,16.47
2022-09-11T04:11:38.958Z,15.27
2022-09-11T04:14:13.086Z,15.79
2022-09-11T04:16:43.520Z,17.55
2022-09-11T04:19:13.400Z,14.17
2022-09-11T04:21:44.219Z,16.42
2022-09-11T04:24:12.732Z,17.34
2022-09-11T04:26:40.839Z,15.76
2022-09-11T04:29:17.772Z,17.34
2022-09-11T04:31:47.550Z,17.52
2022-09-11T04:34:17.151Z,14.76
2022-09-11T04:36:46.969Z,16.62
2022-09-11T04:39:20.626Z,17.43
2022-09-11T04:41:49.902Z,17.33
2022-09-11T04:44:20.778Z,17.28
2022-09-11T04:46:49.076Z,15.54
2022-09-11T04:49:18.859Z,14.13
2022-09-11T04:51:49.523Z,17.08
2022-09-11T04:54:21.289Z,13.71
2022-09-11T04:56:49.988Z,17.19
2022-09-11T04:59:22.062Z,17.25
2022-09-11T05:01:59.363Z,14.23
2022-09-11T05:04:30.489Z,17.44
2022-09-11T05:06:59.967Z,15.88
2022-09-11T05:09:28.229Z,16.73
2022-09-11T05:11:57.639Z,17.38
2022-09-11T05:14:30.284Z,16.11
2022-09-11T05:16:58.532Z,15.85
2022-09-11T05:19:29.324Z,15.77
2022-09-11T05:21:57.479Z,13.87
2022-09-11T05:24:26.996Z,17.43
2022-09-11T05:26:58.862Z,15.77
2022-09-11T05:29:32.411Z,16.68
2022-09-11T05:32:04.103Z,15.58
2022-09-11T05:34:32.115Z,14.43
2022-09-11T05:37:02.379Z,16.88
2022-09-11T05:39:35.335Z,16.32
2022-09-11T05:42:05.411Z,17.08
2022-09-11T05:44:37.097Z,17.50
2022-09-11T05:47:05.660Z,16.39
2022-09-11T05:49:33.726Z,16.61
2022-09-11T05:52:03.824Z,16.01
2022-09-11T05:54:36.113Z,17.42
2022-09-11T05:57:07.781Z,15.58
2022-09-11T05:59:39.143Z,16.71
2022-09-11T06:02:08.089Z,16.98
2022-09-11T06:04:42.900Z,15.14
2022-09-11T06:07:11.140Z,15.30
2022-09-11T06:09:43.518Z,15.64
2022-09-11T06:12:12.848Z,15.26
2022-09-11T06:14:44.578Z,17.54
2022-09-11T06:17:13.446Z,17.46
2022-09-11T06:19:41.920Z,16.64
2022-09-11T06:22:10.702Z,17.57
2022-09-11T06:24:43.866Z,16.41
2022-09-11T06:27:12.211Z,16.98
2022-09-11T06:29:44.987Z,15.47
2022-09-11T06:32:13.303Z,17.61
2022-09-11T06:34:42.047Z,15.73
2022-09-11T06:37:13.841Z,15.44
2022-09-11T06:39:43.655Z,17.43
2022-09-11T06:42:19.242Z,17.63
2022-09-11T06:44:50.838Z,15.13
2022-09-11T06:47:19.446Z,15.26
2022-09-11T06:49:47.654Z,15.22
2022-09-11T06:52:21.703Z,16.70
2022-09-11T06:55:04.353Z,15.70
2022-09-11T06:57:41.963Z,17.40
2022-09-11T07:00:16.171Z,17.84
2022-09-11T07:02:46.345Z,17.88
2022-09-11T07:05:54.944Z,18.06
2022-09-11T07:08:25.827Z,16.19
2022-09-11T07:10:56.085Z,16.39
2022-09-11T07:13:24.680Z,17.10
2022-09-11T07:16:01.351Z,17.55
2022-09-11T07:18:34.155Z,18.22
2022-09-11T07:21:05.176Z,17.62
2022-09-11T07:23:34.808Z,17.59
2022-09-11T07:26:09.474Z,18.42
2022-09-11T07:28:38.663Z,18.37
2022-09-11T07:31:10.549Z,18.05
2022-09-11T07:33:39.584Z,18.24
2022-09-11T07:36:27.330Z,16.96
2022-09-11T07:38:57.670Z,18.11
2022-09-11T07:41:34.818Z,18.00
2022-09-11T07:44:07.587Z,15.07
2022-09-11T07:46:36.360Z,16.85
2022-09-11T07:49:10.093Z,18.14
2022-09-11T07:51:42.689Z,16.56
2022-09-11T07:54:13.516Z,17.28
2022-09-11T07:56:44.505Z,18.44
2022-09-11T07:59:13.360Z,18.34
2022-09-11T08:01:45.926Z,18.17
2022-09-11T08:04:18.143Z,16.55
2022-09-11T08:06:46.400Z,17.11
2022-09-11T08:09:22.947Z,16.13
2022-09-11T08:11:58.778Z,15.61
2022-09-11T08:14:28.561Z,18.27
2022-09-11T08:17:02.269Z,15.83
2022-09-11T08:19:32.863Z,15.97
2022-09-11T08:22:03.357Z,16.34
2022-09-11T08:24:36.657Z,17.65
2022-09-11T08:27:08.044Z,15.21
2022-09-11T08:29:40.733Z,18.10
2022-09-11T08:32:09.330Z,16.75
2022-09-11T08:34:38.474Z,16.91
2022-09-11T08:37:07.078Z,18.68
2022-09-11T08:39:37.021Z,16.40
2022-09-11T08:42:14.188Z,17.58
2022-09-11T08:44:48.010Z,19.68
2022-09-11T08:47:26.644Z,17.74
2022-09-11T08:50:00.355Z,20.16
2022-09-11T08:52:30.251Z,19.15
2022-09-11T08:55:00.369Z,19.11
2022-09-11T08:57:42.601Z,18.87
2022-09-11T09:00:20.737Z,19.80
2022-09-11T09:03:12.585Z,18.73
2022-09-11T09:05:51.708Z,19.69
2022-09-11T09:08:38.432Z,18.04
2022-09-11T09:11:24.277Z,20.02
2022-09-11T09:14:09.774Z,19.80
2022-09-11T09:16:49.078Z,19.69
2022-09-11T09:19:21.758Z,17.04
2022-09-11T09:22:07.352Z,17.65
2022-09-11T09:24:43.746Z,16.99
2022-09-11T09:27:17.252Z,18.89
2022-09-11T09:29:51.857Z,19.32
2022-09-11T09:32:26.741Z,20.11
2022-09-11T09:34:59.970Z,19.97
2022-09-11T09:37:29.918Z,17.64
2022-09-11T09:40:03.551Z,18.53
2022-09-11T09:42:59.844Z,18.43
2022-09-11T09:45:41.369Z,19.75
2022-09-11T09:48:11.385Z,21.46
2022-09-11T09:50:41.661Z,22.46
2022-09-11T09:53:16.970Z,20.15
2022-09-11T09:55:47.604Z,21.61
2022-09-11T09:58:15.810Z,21.48
2022-09-11T10:00:46.064Z,23.28
2022-09-11T10:03:44.050Z,20.62
2022-09-11T10:06:14.980Z,23.48
2022-09-11T10:08:44.472Z,22.40
2022-09-11T10:11:13.200Z,22.87
2022-09-11T10:13:43.702Z,22.83
2022-09-11T10:16:23.637Z,22.55
2022-09-11T10:18:51.852Z,24.48
2022-09-11T10:21:46.049Z,24.79
2022-09-11T10:24:24.170Z,26.25
2022-09-11T10:26:55.829Z,25.05
2022-09-11T10:29:27.319Z,26.48
2022-09-11T10:31:59.261Z,24.56
2022-09-11T10:34:29.302Z,26.85
2022-09-11T10:37:01.866Z,26.76
2022-09-11T10:39:32.544Z,25.99
2022-09-11T10:42:12.460Z,30.14
2022-09-11T10:44:44.639Z,33.57
2022-09-11T10:47:18.319Z,36.21
2022-09-11T10:49:47.082Z,38.02
2022-09-11T10:52:22.052Z,38.52
2022-09-11T10:55:00.009Z,40.68
2022-09-11T10:57:34.234Z,40.74
2022-09-11T11:00:07.784Z,41.76
2022-09-11T11:02:40.825Z,42.05
2022-09-11T11:05:15.763Z,41.31
2022-09-11T11:08:07.583Z,41.65
2022-09-11T11:10:51.173Z,39.86
2022-09-11T11:13:36.046Z,41.09
2022-09-11T11:16:11.035Z,42.35
2022-09-11T11:19:02.081Z,41.11
2022-09-11T11:21:44.555Z,39.65
2022-09-11T11:24:25.816Z,41.23
2022-09-11T11:27:10.668Z,41.51
2022-09-11T11:30:00.665Z,42.10
2022-09-11T11:32:54.908Z,39.59
2022-09-11T11:35:26.774Z,37.77
2022-09-11T11:38:04.506Z,35.07
2022-09-11T11:40:37.663Z,35.89
2022-09-11T11:43:07.628Z,37.80
2022-09-11T11:45:40.345Z,38.89
2022-09-11T11:48:15.625Z,39.06
2022-09-11T11:50:48.360Z,37.14
2022-09-11T11:53:22.264Z,37.93
2022-09-11T11:55:59.866Z,39.64
2022-09-11T11:58:39.884Z,40.80
2022-09-11T12:01:15.916Z,41.35
2022-09-11T12:03:48.829Z,40.32
2022-09-11T12:06:18.071Z,39.95
2022-09-11T12:08:46.482Z,38.67
2022-09-11T12:11:17.610Z,36.95
2022-09-11T12:13:48.861Z,35.50
2022-09-11T12:16:21.120Z,34.34
2022-09-11T12:19:17.384Z,32.07
2022-09-11T12:22:40.680Z,32.13
2022-09-11T12:26:04.396Z,30.81
2022-09-11T12:28:34.608Z,30.51
2022-09-11T12:31:05.993Z,29.61
2022-09-11T12:33:56.761Z,29.67
2022-09-11T12:36:36.111Z,29.38
2022-09-11T12:39:15.885Z,29.19
2022-09-11T12:41:43.740Z,28.93
2022-09-11T12:44:32.424Z,28.23
2022-09-11T12:47:13.550Z,28.39
2022-09-11T12:49:45.173Z,28.23
2022-09-11T12:52:26.323Z,27.91
2022-09-11T12:54:55.405Z,27.43
2022-09-11T12:57:30.776Z,27.16
2022-09-11T13:00:07.435Z,25.62
2022-09-11T13:02:37.639Z,27.09
2022-09-11T13:05:16.781Z,26.61
2022-09-11T13:07:48.147Z,24.68
2022-09-11T13:10:30.370Z,26.01
2022-09-11T13:13:02.434Z,26.06
2022-09-11T13:15:41.769Z,25.11
2022-09-11T13:18:33.053Z,25.72
2022-09-11T13:21:04.682Z,24.77
2022-09-11T13:23:34.586Z,23.84
2022-09-11T13:26:05.615Z,22.33
2022-09-11T13:28:43.713Z,24.68
2022-09-11T13:31:19.423Z,24.62
2022-09-11T13:33:52.193Z,24.64
2022-09-11T13:36:23.074Z,24.90
2022-09-11T13:38:55.996Z,24.89
2022-09-11T13:41:29.927Z,22.89
2022-09-11T13:44:01.002Z,23.58
2022-09-11T13:46:34.799Z,23.37
2022-09-11T13:49:27.637Z,22.64
2022-09-11T13:51:56.800Z,23.71
2022-09-11T13:54:29.599Z,20.96
2022-09-11T13:57:13.426Z,21.14
2022-09-11T13:59:46.457Z,23.39
2022-09-11T14:02:31.102Z,22.89
2022-09-11T14:05:10.871Z,21.04
2022-09-11T14:07:47.493Z,21.85
2022-09-11T14:10:22.195Z,21.75
2022-09-11T14:12:55.464Z,23.08
2022-09-11T14:15:36.136Z,23.43
2022-09-11T14:18:07.510Z,23.28
2022-09-11T14:20:40.764Z,23.56
2022-09-11T14:23:18.116Z,23.10
2022-09-11T14:26:04.273Z,22.41
2022-09-11T14:28:42.867Z,23.37
2022-09-11T14:31:13.782Z,23.28
2022-09-11T14:33:43.167Z,23.19
2022-09-11T14:36:19.460Z,23.14
2022-09-11T14:38:48.449Z,23.11
2022-09-11T14:41:16.821Z,23.09
2022-09-11T14:43:48.872Z,23.02
2022-09-11T14:46:17.412Z,22.97
2022-09-11T14:48:46.776Z,22.79
2022-09-11T14:51:15.036Z,22.68
2022-09-11T14:53:43.866Z,22.55
2022-09-11T14:56:11.756Z,22.87
2022-09-11T14:58:40.494Z,22.78
2022-09-11T15:01:09.947Z,21.50
2022-09-11T15:03:38.767Z,22.83
2022-09-11T15:06:15.427Z,22.87
2022-09-11T15:08:43.239Z,22.87
2022-09-11T15:11:10.999Z,22.87
2022-09-11T15:13:52.617Z,22.86
2022-09-11T15:16:26.638Z,21.59
2022-09-11T15:18:54.604Z,22.61
2022-09-11T15:21:23.760Z,22.75
2022-09-11T15:23:51.681Z,22.69
2022-09-11T15:26:19.968Z,22.44
2022-09-11T15:28:50.713Z,22.64
2022-09-11T15:31:19.390Z,22.62
2022-09-11T15:33:51.386Z,22.63
2022-09-11T15:36:21.244Z,22.59
2022-09-11T15:38:54.140Z,21.01
2022-09-11T15:41:22.915Z,22.55
2022-09-11T15:43:51.437Z,22.56
2022-09-11T15:46:21.035Z,22.58
2022-09-11T15:48:49.776Z,22.60
2022-09-11T15:51:19.823Z,22.62
2022-09-11T15:53:48.099Z,22.60
2022-09-11T15:56:23.839Z,22.56
2022-09-11T15:58:53.594Z,22.50
2022-09-11T16:01:22.651Z,22.44
2022-09-11T16:03:51.379Z,22.42
2022-09-11T16:06:19.948Z,22.41
2022-09-11T16:08:48.976Z,22.41
2022-09-11T16:11:18.538Z,22.19
2022-09-11T16:13:49.795Z,22.37
2022-09-11T16:16:23.567Z,22.32
2022-09-11T16:18:51.813Z,20.74
2022-09-11T16:21:20.868Z,21.08
2022-09-11T16:23:53.727Z,19.60
2022-09-11T16:26:25.085Z,20.55
2022-09-11T16:28:53.115Z,22.09
2022-09-11T16:31:21.003Z,22.15
2022-09-11T16:33:51.888Z,22.10
2022-09-11T16:36:22.484Z,19.57
2022-09-11T16:38:52.525Z,21.99
2022-09-11T16:41:22.294Z,21.94
2022-09-11T16:43:53.207Z,21.89
2022-09-11T16:46:23.046Z,21.76
2022-09-11T16:48:54.957Z,21.68
2022-09-11T16:51:25.224Z,21.67
2022-09-11T16:53:54.082Z,21.55
2022-09-11T16:56:24.439Z,21.40
2022-09-11T16:58:54.414Z,21.23
2022-09-11T17:01:23.800Z,20.74
2022-09-11T17:03:53.651Z,20.90
2022-09-11T17:06:22.852Z,20.50
2022-09-11T17:08:52.043Z,20.56
2022-09-11T17:11:22.187Z,20.22
2022-09-11T17:13:50.480Z,20.27
2022-09-11T17:16:21.677Z,20.14
2022-09-11T17:18:51.108Z,19.70
2022-09-11T17:21:18.967Z,19.90
2022-09-11T17:23:47.064Z,18.02
2022-09-11T17:26:18.167Z,19.60
2022-09-11T17:28:47.388Z,18.99
2022-09-11T17:31:17.553Z,19.48
2022-09-11T17:33:47.657Z,18.86
2022-09-11T17:36:17.502Z,19.23
2022-09-11T17:38:46.266Z,19.14
2022-09-11T17:41:14.450Z,19.03
2022-09-11T17:43:42.257Z,16.94
2022-09-11T17:46:12.553Z,16.92
2022-09-11T17:48:41.084Z,18.50
2022-09-11T17:51:12.488Z,18.60
2022-09-11T17:53:42.801Z,18.50
2022-09-11T17:56:13.177Z,16.87
2022-09-11T17:58:42.679Z,17.36
2022-09-11T18:01:14.792Z,17.15
2022-09-11T18:03:44.652Z,18.11
2022-09-11T18:06:21.231Z,18.02
2022-09-11T18:08:49.029Z,17.70
2022-09-11T18:11:16.784Z,17.82
2022-09-11T18:13:44.664Z,16.96
2022-09-11T18:16:18.858Z,17.65
2022-09-11T18:18:49.660Z,17.11
2022-09-11T18:21:18.860Z,17.47
2022-09-11T18:23:47.065Z,16.60
2022-09-11T18:26:22.986Z,17.29
2022-09-11T18:28:51.604Z,17.20
2022-09-11T18:31:20.018Z,16.87
2022-09-11T18:33:53.103Z,17.05
2022-09-11T18:36:23.437Z,16.68
2022-09-11T18:38:51.647Z,16.90
2022-09-11T18:41:24.064Z,16.64
2022-09-11T18:43:55.985Z,16.75
2022-09-11T18:46:25.252Z,15.89
2022-09-11T18:48:53.045Z,16.62
2022-09-11T18:51:22.267Z,16.44
2022-09-11T18:53:51.818Z,16.17
2022-09-11T18:56:22.680Z,16.20
2022-09-11T18:58:52.380Z,16.34
2022-09-11T19:01:27.280Z,16.00
2022-09-11T19:03:55.385Z,16.21
2022-09-11T19:06:28.250Z,14.16
2022-09-11T19:08:57.219Z,15.61
2022-09-11T19:11:26.988Z,16.01
2022-09-11T19:13:56.787Z,15.95
2022-09-11T19:16:35.716Z,15.27
2022-09-11T19:19:08.122Z,14.67
2022-09-11T19:21:44.587Z,12.36
2022-09-11T19:24:13.013Z,13.12
2022-09-11T19:26:54.209Z,15.06
2022-09-11T19:29:24.418Z,13.24
2022-09-11T19:32:04.025Z,13.26
2022-09-11T19:34:34.984Z,14.63
2022-09-11T19:37:06.440Z,14.81
2022-09-11T19:39:34.138Z,15.36
2022-09-11T19:42:02.896Z,15.32
2022-09-11T19:44:34.413Z,15.28
2022-09-11T19:47:02.466Z,15.22
2022-09-11T19:49:30.286Z,15.08
2022-09-11T19:51:58.175Z,15.14
2022-09-11T19:54:27.246Z,15.11
2022-09-11T19:56:55.540Z,15.07
2022-09-11T19:59:23.435Z,14.63
2022-09-11T20:01:51.558Z,14.97
2022-09-11T20:04:19.497Z,14.95
2022-09-11T20:09:30.497Z,14.09
2022-09-11T20:12:01.413Z,14.84
2022-09-11T20:14:30.351Z,14.79
2022-09-11T20:16:58.156Z,14.75
2022-09-11T20:19:26.036Z,14.21
2022-09-11T20:21:53.810Z,14.69
2022-09-11T20:24:21.521Z,14.65
2022-09-11T20:26:50.169Z,14.61
2022-09-11T20:29:19.358Z,14.57
2022-09-11T20:31:50.963Z,14.52
2022-09-11T20:34:22.072Z,14.28
2022-09-11T20:36:49.835Z,14.44
2022-09-11T20:39:19.955Z,14.22
2022-09-11T20:41:47.794Z,14.36
2022-09-11T20:44:15.649Z,14.07
2022-09-11T20:46:47.318Z,14.28
2022-09-11T20:49:15.289Z,13.91
2022-09-11T20:51:43.213Z,14.20
2022-09-11T20:54:11.024Z,13.62
2022-09-11T20:56:38.912Z,13.90
2022-09-11T20:59:07.153Z,13.58
2022-09-11T21:01:35.245Z,14.04
2022-09-11T21:04:05.896Z,13.51
2022-09-11T21:06:35.317Z,13.76
2022-09-11T21:09:11.725Z,13.92
2022-09-11T21:11:41.699Z,13.89
2022-09-11T21:14:10.522Z,13.65
2022-09-11T21:16:38.340Z,13.82
2022-09-11T21:19:08.833Z,13.68
2022-09-11T21:21:40.121Z,13.55
2022-09-11T21:24:11.639Z,13.71
2022-09-11T21:26:39.726Z,13.56
2022-09-11T21:29:10.139Z,13.64
2022-09-11T21:31:38.099Z,13.60
2022-09-11T21:34:08.044Z,13.04
2022-09-11T21:36:36.915Z,13.46
2022-09-11T21:39:05.312Z,13.52
2022-09-11T21:41:33.043Z,13.49
2022-09-11T21:44:00.754Z,13.46
2022-09-11T21:46:29.484Z,12.94
2022-09-11T21:48:57.325Z,12.28
2022-09-11T21:51:26.408Z,13.37
2022-09-11T21:53:58.175Z,13.33
2022-09-11T21:56:29.335Z,13.31
2022-09-11T21:58:57.730Z,13.18
2022-09-11T22:01:26.654Z,13.26
2022-09-11T22:03:54.960Z,13.24
2022-09-11T22:06:23.697Z,13.09
2022-09-11T22:08:53.597Z,13.16
2022-09-11T22:11:21.894Z,12.80
2022-09-11T22:13:50.088Z,13.11
2022-09-11T22:16:19.858Z,12.66
2022-09-11T22:18:50.608Z,13.07
2022-09-11T22:21:18.926Z,12.97
2022-09-11T22:23:47.243Z,12.48
2022-09-11T22:26:18.476Z,13.01
2022-09-11T22:28:47.321Z,12.99
2022-09-11T22:31:17.822Z,11.85
2022-09-11T22:33:46.026Z,11.76
2022-09-11T22:36:16.711Z,12.91
2022-09-11T22:38:44.892Z,11.45
2022-09-11T22:41:13.307Z,11.53
2022-09-11T22:43:42.997Z,10.95
2022-09-11T22:46:12.431Z,11.18
2022-09-11T22:48:40.904Z,12.71
2022-09-11T22:51:09.325Z,10.80
2022-09-11T22:53:39.522Z,12.74
2022-09-11T22:56:08.012Z,12.72
2022-09-11T22:58:38.383Z,11.85
2022-09-11T23:01:09.450Z,12.55
2022-09-11T23:03:37.855Z,12.12
2022-09-11T23:06:24.256Z,12.35
2022-09-11T23:08:52.602Z,12.56
2022-09-11T23:11:21.990Z,10.53
2022-09-11T23:13:52.234Z,11.51
2022-09-11T23:16:25.201Z,11.19
2022-09-11T23:18:55.719Z,10.83
2022-09-11T23:21:24.234Z,11.08
2022-09-11T23:23:54.508Z,12.42
2022-09-11T23:26:23.927Z,12.08
2022-09-11T23:28:52.164Z,12.10
2022-09-11T23:31:24.772Z,10.69
2022-09-11T23:33:55.701Z,9.06
2022-09-11T23:36:24.943Z,11.12
2022-09-11T23:38:53.450Z,9.97
2022-09-11T23:41:22.424Z,10.13
2022-09-11T23:43:51.123Z,12.23
2022-09-11T23:46:19.647Z,12.20
2022-09-11T23:48:50.720Z,11.02
2022-09-11T23:51:19.267Z,12.14
2022-09-11T23:53:49.233Z,10.07
2022-09-11T23:56:20.753Z,10.05
2022-09-11T23:58:49.249Z,11.32
